createdAt,value
2019-01-27T00:00:05.836Z,5.29
2019-01-27T00:02:34.772Z,5.38
2019-01-27T00:05:04.138Z,5.37
2019-01-27T00:07:32.564Z,5.35
2019-01-27T00:10:01.256Z,5.32
2019-01-27T00:12:29.826Z,5.39
2019-01-27T00:14:58.520Z,5.33
2019-01-27T00:17:26.979Z,5.36
2019-01-27T00:19:55.533Z,5.32
2019-01-27T00:22:24.146Z,5.37
2019-01-27T00:24:52.565Z,5.36
2019-01-27T00:27:21.086Z,5.37
2019-01-27T00:29:49.732Z,5.34
2019-01-27T00:32:18.430Z,5.32
2019-01-27T00:34:46.906Z,5.36
2019-01-27T00:37:15.432Z,5.34
2019-01-27T00:39:44.352Z,5.31
2019-01-27T00:42:12.888Z,5.38
2019-01-27T00:44:43.674Z,5.35
2019-01-27T00:47:12.506Z,5.36
2019-01-27T00:49:41.381Z,5.35
2019-01-27T00:52:10.124Z,5.41
2019-01-27T00:54:38.643Z,5.32
2019-01-27T00:57:07.113Z,5.33
2019-01-27T00:59:36.077Z,5.32
2019-01-27T01:02:05.006Z,5.28
2019-01-27T01:04:33.730Z,5.33
2019-01-27T01:07:02.521Z,5.28
2019-01-27T01:09:31.038Z,5.28
2019-01-27T01:11:59.851Z,5.27
2019-01-27T01:14:28.512Z,5.15
2019-01-27T01:16:57.508Z,5.18
2019-01-27T01:19:27.154Z,5.22
2019-01-27T01:21:55.830Z,5.25
2019-01-27T01:24:24.727Z,5.25
2019-01-27T01:26:53.235Z,5.23
2019-01-27T01:29:21.827Z,5.20
2019-01-27T01:31:50.675Z,5.24
2019-01-27T01:34:19.209Z,5.28
2019-01-27T01:36:47.775Z,5.21
2019-01-27T01:39:16.427Z,5.25
2019-01-27T01:41:44.978Z,5.12
2019-01-27T01:44:13.639Z,5.18
2019-01-27T01:46:42.700Z,5.24
2019-01-27T01:49:11.115Z,5.21
2019-01-27T01:51:39.814Z,5.13
2019-01-27T01:54:08.373Z,5.19
2019-01-27T01:56:38.645Z,5.19
2019-01-27T01:59:07.202Z,5.17
2019-01-27T02:01:36.286Z,5.15
2019-01-27T02:04:05.230Z,5.15
2019-01-27T02:06:33.967Z,5.15
2019-01-27T02:09:06.271Z,5.16
2019-01-27T02:11:34.843Z,5.19
2019-01-27T02:14:03.952Z,5.18
2019-01-27T02:16:34.430Z,5.21
2019-01-27T02:19:03.364Z,5.18
2019-01-27T02:21:33.589Z,5.17
2019-01-27T02:24:02.317Z,5.17
2019-01-27T02:26:30.867Z,5.20
2019-01-27T02:28:59.407Z,5.13
2019-01-27T02:31:28.037Z,5.14
2019-01-27T02:33:56.509Z,5.02
2019-01-27T02:36:25.728Z,5.02
2019-01-27T02:38:54.196Z,5.01
2019-01-27T02:41:23.180Z,5.09
2019-01-27T02:43:51.752Z,5.07
2019-01-27T02:46:20.284Z,5.10
2019-01-27T02:48:48.967Z,5.01
2019-01-27T02:51:17.683Z,5.06
2019-01-27T02:53:46.195Z,4.99
2019-01-27T02:56:14.796Z,4.96
2019-01-27T02:58:43.325Z,5.09
2019-01-27T03:01:11.799Z,5.05
2019-01-27T03:03:40.352Z,5.01
2019-01-27T03:06:37.428Z,5.04
2019-01-27T03:09:16.711Z,5.08
2019-01-27T03:11:49.145Z,5.04
2019-01-27T03:14:19.426Z,4.94
2019-01-27T03:16:49.229Z,5.03
2019-01-27T03:19:18.243Z,4.95
2019-01-27T03:21:46.731Z,4.99
2019-01-27T03:24:15.706Z,4.96
2019-01-27T03:26:44.227Z,4.93
2019-01-27T03:29:12.910Z,5.00
2019-01-27T03:31:41.524Z,4.99
2019-01-27T03:34:10.227Z,4.97
2019-01-27T03:36:38.877Z,4.99
2019-01-27T03:39:12.175Z,5.02
2019-01-27T03:41:40.948Z,4.99
2019-01-27T03:44:09.774Z,5.03
2019-01-27T03:46:38.256Z,5.03
2019-01-27T03:49:07.694Z,4.97
2019-01-27T03:51:36.238Z,5.02
2019-01-27T03:54:06.327Z,5.03
2019-01-27T03:56:34.891Z,5.05
2019-01-27T03:59:03.842Z,5.06
2019-01-27T04:01:32.532Z,4.94
2019-01-27T04:04:00.994Z,5.02
2019-01-27T04:06:29.845Z,4.99
2019-01-27T04:08:58.607Z,4.86
2019-01-27T04:11:27.220Z,4.88
2019-01-27T04:13:55.791Z,4.92
2019-01-27T04:16:24.221Z,4.94
2019-01-27T04:18:52.757Z,4.98
2019-01-27T04:21:21.496Z,4.98
2019-01-27T04:23:50.299Z,5.01
2019-01-27T04:26:18.947Z,4.96
2019-01-27T04:28:47.366Z,4.99
2019-01-27T04:31:15.905Z,5.02
2019-01-27T04:33:46.357Z,4.93
2019-01-27T04:36:14.927Z,4.88
2019-01-27T04:38:44.908Z,4.96
2019-01-27T04:41:13.679Z,4.97
2019-01-27T04:43:42.228Z,4.95
2019-01-27T04:46:10.972Z,4.98
2019-01-27T04:48:40.568Z,5.00
2019-01-27T04:51:08.942Z,4.98
2019-01-27T04:53:37.519Z,4.91
2019-01-27T04:56:06.120Z,4.95
2019-01-27T04:58:34.779Z,4.99
2019-01-27T05:01:03.969Z,5.00
2019-01-27T05:03:44.139Z,4.98
2019-01-27T05:06:12.704Z,5.04
2019-01-27T05:08:41.255Z,4.98
2019-01-27T05:11:09.996Z,4.99
2019-01-27T05:13:38.562Z,5.02
2019-01-27T05:16:07.040Z,5.05
2019-01-27T05:18:35.669Z,5.08
2019-01-27T05:21:04.327Z,5.00
2019-01-27T05:23:32.782Z,5.07
2019-01-27T05:26:01.665Z,5.09
2019-01-27T05:28:30.525Z,5.08
2019-01-27T05:30:59.087Z,5.00
2019-01-27T05:33:27.655Z,5.07
2019-01-27T05:35:56.166Z,5.11
2019-01-27T05:38:24.817Z,5.05
2019-01-27T05:40:53.388Z,5.05
2019-01-27T05:43:22.104Z,5.10
2019-01-27T05:45:50.638Z,5.10
2019-01-27T05:48:19.785Z,5.13
2019-01-27T05:50:48.280Z,5.08
2019-01-27T05:53:17.055Z,5.11
2019-01-27T05:55:45.733Z,5.06
2019-01-27T05:58:14.382Z,5.09
2019-01-27T06:00:44.818Z,5.11
2019-01-27T06:03:13.458Z,5.20
2019-01-27T06:05:41.940Z,5.12
2019-01-27T06:08:10.419Z,5.14
2019-01-27T06:10:39.030Z,5.22
2019-01-27T06:13:07.564Z,5.19
2019-01-27T06:15:36.153Z,5.20
2019-01-27T06:18:05.159Z,5.20
2019-01-27T06:20:34.071Z,5.19
2019-01-27T06:23:02.697Z,5.19
2019-01-27T06:25:31.266Z,5.28
2019-01-27T06:27:59.874Z,5.27
2019-01-27T06:30:28.670Z,5.27
2019-01-27T06:33:16.735Z,5.29
2019-01-27T06:35:45.348Z,5.17
2019-01-27T06:38:13.783Z,5.29
2019-01-27T06:40:42.307Z,5.20
2019-01-27T06:43:10.903Z,5.17
2019-01-27T06:45:39.541Z,5.20
2019-01-27T06:48:08.031Z,5.20
2019-01-27T06:50:36.462Z,5.25
2019-01-27T06:53:05.771Z,5.27
2019-01-27T06:55:34.256Z,5.25
2019-01-27T06:58:03.213Z,5.23
2019-01-27T07:01:10.631Z,5.22
2019-01-27T07:04:05.049Z,5.17
2019-01-27T07:06:46.379Z,5.13
2019-01-27T07:09:38.741Z,5.09
2019-01-27T07:12:27.446Z,5.12
2019-01-27T07:15:14.038Z,5.15
2019-01-27T07:17:58.503Z,5.17
2019-01-27T07:20:35.742Z,5.17
2019-01-27T07:23:36.311Z,5.17
2019-01-27T07:26:36.435Z,5.11
2019-01-27T07:29:27.468Z,5.19
2019-01-27T07:32:15.988Z,5.18
2019-01-27T07:35:09.878Z,5.20
2019-01-27T07:38:03.720Z,5.17
2019-01-27T07:40:54.333Z,5.15
2019-01-27T07:43:45.162Z,5.19
2019-01-27T07:46:22.279Z,5.14
2019-01-27T07:49:00.724Z,5.23
2019-01-27T07:51:47.975Z,5.17
2019-01-27T07:54:50.969Z,5.25
2019-01-27T07:57:34.217Z,5.23
2019-01-27T08:00:11.858Z,5.23
2019-01-27T08:03:11.967Z,5.41
2019-01-27T08:05:47.331Z,5.45
2019-01-27T08:08:28.053Z,5.42
2019-01-27T08:11:15.337Z,5.51
2019-01-27T08:13:55.314Z,5.42
2019-01-27T08:16:42.403Z,5.53
2019-01-27T08:19:45.537Z,5.50
2019-01-27T08:22:43.841Z,5.62
2019-01-27T08:25:34.802Z,5.61
2019-01-27T08:28:12.488Z,5.59
2019-01-27T08:31:15.771Z,5.62
2019-01-27T08:34:15.767Z,5.62
2019-01-27T08:36:52.602Z,5.62
2019-01-27T08:39:44.781Z,5.62
2019-01-27T08:42:35.786Z,5.57
2019-01-27T08:45:13.794Z,5.66
2019-01-27T08:47:42.302Z,5.68
2019-01-27T08:50:16.882Z,5.68
2019-01-27T08:52:45.370Z,5.75
2019-01-27T08:55:14.871Z,5.84
2019-01-27T08:57:43.290Z,5.78
2019-01-27T09:00:16.749Z,5.96
2019-01-27T09:03:07.356Z,5.89
2019-01-27T09:05:58.074Z,5.89
2019-01-27T09:08:38.799Z,5.89
2019-01-27T09:11:32.860Z,5.82
2019-01-27T09:14:22.818Z,5.82
2019-01-27T09:17:09.719Z,5.68
2019-01-27T09:19:45.444Z,5.59
2019-01-27T09:22:32.547Z,5.58
2019-01-27T09:25:20.839Z,5.57
2019-01-27T09:28:07.177Z,5.65
2019-01-27T09:30:43.300Z,5.73
2019-01-27T09:33:24.218Z,5.69
2019-01-27T09:36:13.354Z,5.79
2019-01-27T09:39:01.505Z,5.80
2019-01-27T09:41:52.402Z,5.79
2019-01-27T09:44:37.134Z,5.79
2019-01-27T09:47:18.729Z,5.92
2019-01-27T09:50:09.280Z,5.93
2019-01-27T09:52:55.972Z,5.96
2019-01-27T09:55:53.498Z,5.92
2019-01-27T09:58:56.420Z,5.90
2019-01-27T10:01:51.877Z,5.92
2019-01-27T10:04:40.486Z,5.95
2019-01-27T10:07:37.612Z,6.02
2019-01-27T10:10:33.345Z,6.08
2019-01-27T10:13:20.093Z,6.12
2019-01-27T10:16:20.036Z,6.15
2019-01-27T10:19:08.339Z,6.08
2019-01-27T10:22:08.245Z,6.11
2019-01-27T10:25:00.779Z,6.12
2019-01-27T10:28:00.934Z,6.07
2019-01-27T10:30:58.039Z,6.07
2019-01-27T10:33:49.461Z,6.10
2019-01-27T10:36:32.559Z,6.05
2019-01-27T10:39:19.223Z,6.04
2019-01-27T10:42:06.127Z,5.95
2019-01-27T10:44:53.050Z,6.10
2019-01-27T10:47:39.925Z,5.98
2019-01-27T10:50:30.315Z,5.94
2019-01-27T10:53:21.031Z,5.94
2019-01-27T10:55:58.359Z,6.04
2019-01-27T10:58:48.929Z,6.06
2019-01-27T11:01:31.774Z,6.11
2019-01-27T11:04:11.622Z,6.24
2019-01-27T11:06:59.856Z,6.21
2019-01-27T11:10:03.278Z,6.29
2019-01-27T11:12:51.190Z,6.33
2019-01-27T11:15:38.727Z,6.33
2019-01-27T11:18:25.766Z,6.27
2019-01-27T11:21:19.675Z,6.44
2019-01-27T11:24:05.074Z,6.44
2019-01-27T11:26:47.485Z,6.45
2019-01-27T11:29:33.968Z,6.42
2019-01-27T11:32:31.070Z,6.41
2019-01-27T11:35:31.026Z,6.40
2019-01-27T11:38:19.072Z,6.40
2019-01-27T11:41:10.070Z,6.43
2019-01-27T11:43:58.296Z,6.41
2019-01-27T11:47:01.578Z,6.30
2019-01-27T11:49:52.817Z,6.33
2019-01-27T11:52:26.039Z,6.30
2019-01-27T11:54:54.532Z,6.39
2019-01-27T11:57:23.052Z,6.35
2019-01-27T11:59:51.655Z,6.34
2019-01-27T12:02:20.217Z,6.39
2019-01-27T12:04:48.878Z,6.40
2019-01-27T12:07:17.384Z,6.44
2019-01-27T12:09:45.856Z,6.41
2019-01-27T12:12:14.717Z,6.43
2019-01-27T12:14:43.249Z,6.47
2019-01-27T12:17:11.930Z,6.52
2019-01-27T12:19:40.492Z,6.47
2019-01-27T12:22:09.220Z,6.39
2019-01-27T12:24:37.835Z,6.41
2019-01-27T12:27:06.293Z,6.31
2019-01-27T12:29:35.463Z,6.41
2019-01-27T12:32:04.223Z,6.41
2019-01-27T12:34:32.773Z,6.40
2019-01-27T12:37:01.779Z,6.35
2019-01-27T12:39:30.668Z,6.24
2019-01-27T12:41:59.574Z,6.27
2019-01-27T12:44:27.936Z,6.34
2019-01-27T12:46:56.478Z,6.38
2019-01-27T12:49:25.245Z,6.42
2019-01-27T12:51:53.802Z,6.43
2019-01-27T12:54:22.502Z,6.48
2019-01-27T12:56:51.323Z,6.59
2019-01-27T12:59:21.620Z,6.59
2019-01-27T13:01:51.610Z,6.60
2019-01-27T13:04:22.310Z,6.53
2019-01-27T13:06:50.874Z,6.64
2019-01-27T13:09:20.357Z,6.63
2019-01-27T13:11:48.944Z,6.51
2019-01-27T13:14:17.620Z,6.55
2019-01-27T13:16:47.149Z,6.58
2019-01-27T13:19:15.963Z,6.54
2019-01-27T13:21:44.415Z,6.51
2019-01-27T13:24:13.001Z,6.48
2019-01-27T13:26:41.590Z,6.58
2019-01-27T13:29:11.769Z,6.60
2019-01-27T13:31:40.306Z,6.67
2019-01-27T13:34:08.891Z,6.66
2019-01-27T13:36:38.451Z,6.75
2019-01-27T13:39:08.398Z,6.71
2019-01-27T13:41:38.285Z,6.69
2019-01-27T13:44:07.209Z,6.74
2019-01-27T13:46:35.879Z,6.64
2019-01-27T13:49:04.823Z,6.64
2019-01-27T13:51:33.455Z,6.63
2019-01-27T13:54:02.049Z,6.70
2019-01-27T13:56:31.374Z,6.74
2019-01-27T13:59:00.441Z,6.77
2019-01-27T14:01:29.309Z,6.79
2019-01-27T14:03:58.015Z,6.67
2019-01-27T14:06:27.161Z,6.84
2019-01-27T14:08:56.330Z,6.90
2019-01-27T14:11:25.264Z,6.94
2019-01-27T14:13:53.726Z,6.88
2019-01-27T14:16:22.531Z,6.91
2019-01-27T14:18:51.160Z,6.82
2019-01-27T14:21:19.775Z,6.79
2019-01-27T14:23:48.340Z,6.84
2019-01-27T14:26:18.141Z,6.76
2019-01-27T14:28:47.394Z,6.72
2019-01-27T14:31:16.285Z,6.78
2019-01-27T14:33:45.183Z,6.81
2019-01-27T14:36:13.871Z,6.61
2019-01-27T14:38:42.771Z,6.68
2019-01-27T14:41:11.779Z,6.63
2019-01-27T14:43:40.441Z,6.65
2019-01-27T14:46:09.283Z,6.73
2019-01-27T14:48:38.143Z,6.72
2019-01-27T14:51:06.705Z,6.61
2019-01-27T14:53:35.352Z,6.51
2019-01-27T14:56:04.097Z,6.44
2019-01-27T14:58:33.449Z,6.53
2019-01-27T15:01:02.425Z,6.55
2019-01-27T15:03:31.333Z,6.48
2019-01-27T15:06:00.076Z,6.49
2019-01-27T15:08:29.002Z,6.46
2019-01-27T15:10:57.911Z,6.36
2019-01-27T15:13:27.541Z,6.37
2019-01-27T15:15:56.285Z,6.37
2019-01-27T15:18:25.536Z,6.39
2019-01-27T15:21:07.109Z,6.38
2019-01-27T15:23:36.141Z,6.27
2019-01-27T15:26:04.929Z,6.32
2019-01-27T15:28:33.646Z,6.31
2019-01-27T15:31:02.086Z,6.24
2019-01-27T15:33:30.620Z,6.24
2019-01-27T15:35:59.158Z,6.22
2019-01-27T15:38:28.241Z,6.24
2019-01-27T15:40:56.899Z,6.25
2019-01-27T15:43:25.552Z,6.21
2019-01-27T15:45:54.110Z,6.19
2019-01-27T15:48:22.803Z,6.19
2019-01-27T15:50:51.590Z,6.18
2019-01-27T15:53:21.867Z,6.18
2019-01-27T15:55:50.286Z,6.13
2019-01-27T15:58:18.974Z,6.07
2019-01-27T16:00:47.970Z,6.07
2019-01-27T16:03:16.580Z,6.04
2019-01-27T16:05:45.114Z,6.02
2019-01-27T16:08:13.850Z,6.02
2019-01-27T16:10:42.315Z,6.01
2019-01-27T16:13:11.218Z,6.07
2019-01-27T16:15:39.645Z,6.05
2019-01-27T16:18:09.052Z,6.06
2019-01-27T16:20:37.414Z,6.02
2019-01-27T16:23:19.699Z,6.06
2019-01-27T16:25:48.536Z,5.91
2019-01-27T16:28:17.324Z,6.36
2019-01-27T16:31:01.780Z,6.17
2019-01-27T16:33:36.974Z,6.12
2019-01-27T16:36:05.806Z,6.06
2019-01-27T16:38:34.663Z,6.08
2019-01-27T16:41:03.621Z,5.93
2019-01-27T16:43:32.189Z,6.07
2019-01-27T16:46:00.565Z,5.96
2019-01-27T16:48:29.425Z,5.94
2019-01-27T16:50:59.637Z,5.94
2019-01-27T16:53:28.038Z,5.92
2019-01-27T16:55:56.766Z,5.89
2019-01-27T16:58:26.100Z,5.88
2019-01-27T17:00:55.471Z,5.89
2019-01-27T17:03:24.644Z,5.92
2019-01-27T17:05:53.348Z,5.95
2019-01-27T17:08:21.851Z,6.00
2019-01-27T17:10:50.755Z,6.04
2019-01-27T17:13:19.462Z,6.03
2019-01-27T17:15:48.047Z,5.93
2019-01-27T17:18:16.808Z,5.92
2019-01-27T17:20:45.373Z,5.93
2019-01-27T17:23:13.901Z,5.91
2019-01-27T17:25:43.608Z,5.93
2019-01-27T17:28:12.346Z,5.87
2019-01-27T17:30:41.030Z,5.91
2019-01-27T17:33:10.096Z,5.83
2019-01-27T17:35:38.834Z,5.92
2019-01-27T17:38:08.043Z,5.88
2019-01-27T17:40:36.696Z,5.89
2019-01-27T17:43:05.265Z,5.85
2019-01-27T17:45:33.830Z,5.86
2019-01-27T17:48:02.760Z,5.84
2019-01-27T17:50:31.475Z,5.72
2019-01-27T17:53:00.228Z,5.63
2019-01-27T17:55:38.959Z,5.51
2019-01-27T17:58:42.075Z,5.44
2019-01-27T18:01:38.746Z,5.31
2019-01-27T18:04:35.911Z,5.24
2019-01-27T18:07:29.902Z,5.22
2019-01-27T18:10:16.656Z,5.16
2019-01-27T18:12:53.041Z,5.14
2019-01-27T18:15:21.749Z,5.16
2019-01-27T18:17:50.774Z,5.17
2019-01-27T18:20:19.736Z,5.19
2019-01-27T18:22:48.372Z,5.19
2019-01-27T18:25:16.984Z,5.23
2019-01-27T18:27:45.558Z,5.12
2019-01-27T18:30:21.139Z,5.20
2019-01-27T18:32:49.845Z,5.11
2019-01-27T18:35:18.611Z,5.09
2019-01-27T18:37:47.100Z,5.18
2019-01-27T18:40:16.297Z,5.13
2019-01-27T18:42:44.945Z,5.15
2019-01-27T18:45:17.336Z,5.06
2019-01-27T18:47:47.501Z,5.06
2019-01-27T18:50:19.290Z,5.05
2019-01-27T18:52:51.881Z,4.93
2019-01-27T18:55:43.769Z,4.98
2019-01-27T18:58:27.872Z,4.91
2019-01-27T19:01:12.530Z,4.94
2019-01-27T19:04:03.661Z,4.97
2019-01-27T19:06:48.958Z,5.01
2019-01-27T19:09:55.282Z,4.93
2019-01-27T19:12:31.280Z,4.92
2019-01-27T19:15:10.350Z,4.95
2019-01-27T19:17:46.465Z,4.85
2019-01-27T19:20:40.505Z,4.84
2019-01-27T19:23:30.234Z,4.80
2019-01-27T19:26:27.139Z,4.81
2019-01-27T19:29:18.235Z,4.79
2019-01-27T19:32:14.904Z,4.65
2019-01-27T19:35:07.184Z,4.61
2019-01-27T19:37:55.679Z,4.67
2019-01-27T19:40:46.958Z,4.51
2019-01-27T19:43:40.607Z,4.46
2019-01-27T19:46:43.965Z,4.53
2019-01-27T19:49:23.160Z,4.45
2019-01-27T19:52:11.811Z,4.46
2019-01-27T19:55:00.583Z,4.41
2019-01-27T19:57:38.783Z,4.27
2019-01-27T20:00:25.458Z,4.31
2019-01-27T20:03:16.340Z,4.18
2019-01-27T20:05:58.159Z,4.29
2019-01-27T20:08:52.761Z,4.10
2019-01-27T20:11:39.541Z,4.15
2019-01-27T20:14:29.811Z,4.07
2019-01-27T20:17:05.107Z,3.90
2019-01-27T20:19:58.141Z,3.88
2019-01-27T20:22:35.507Z,3.98
2019-01-27T20:25:23.724Z,3.89
2019-01-27T20:28:11.098Z,3.89
2019-01-27T20:30:52.989Z,3.86
2019-01-27T20:33:53.522Z,3.85
2019-01-27T20:36:37.826Z,3.87
2019-01-27T20:39:28.543Z,3.92
2019-01-27T20:42:25.330Z,3.85
2019-01-27T20:45:12.754Z,3.89
2019-01-27T20:48:13.327Z,3.84
2019-01-27T20:50:55.348Z,3.67
2019-01-27T20:53:29.322Z,3.81
2019-01-27T20:56:17.569Z,3.68
2019-01-27T20:59:15.045Z,3.63
2019-01-27T21:02:07.203Z,3.76
2019-01-27T21:04:43.052Z,3.77
2019-01-27T21:07:31.368Z,3.69
2019-01-27T21:10:25.130Z,3.77
2019-01-27T21:13:11.619Z,3.82
2019-01-27T21:15:58.927Z,3.82
2019-01-27T21:18:41.412Z,3.85
2019-01-27T21:21:10.377Z,3.88
2019-01-27T21:23:39.030Z,3.87
2019-01-27T21:26:07.619Z,3.89
2019-01-27T21:28:36.331Z,3.86
2019-01-27T21:31:04.850Z,3.91
2019-01-27T21:33:33.635Z,3.90
2019-01-27T21:36:02.235Z,3.92
2019-01-27T21:38:30.856Z,3.93
2019-01-27T21:40:59.272Z,3.86
2019-01-27T21:43:27.888Z,3.85
2019-01-27T21:45:56.670Z,3.89
2019-01-27T21:48:26.482Z,3.94
2019-01-27T21:50:55.541Z,3.93
2019-01-27T21:53:24.196Z,3.95
2019-01-27T21:55:53.523Z,3.80
2019-01-27T21:58:22.116Z,3.96
2019-01-27T22:00:50.672Z,3.80
2019-01-27T22:03:19.185Z,3.96
2019-01-27T22:05:47.669Z,3.95
2019-01-27T22:08:16.187Z,3.99
2019-01-27T22:10:45.009Z,3.80
2019-01-27T22:13:13.520Z,3.86
2019-01-27T22:15:41.899Z,3.77
2019-01-27T22:18:10.489Z,3.89
2019-01-27T22:20:39.077Z,3.82
2019-01-27T22:23:08.180Z,3.78
2019-01-27T22:25:37.160Z,3.73
2019-01-27T22:28:05.663Z,3.69
2019-01-27T22:30:34.229Z,3.57
2019-01-27T22:33:02.696Z,3.54
2019-01-27T22:35:31.152Z,3.61
2019-01-27T22:37:59.722Z,3.54
2019-01-27T22:40:28.326Z,3.53
2019-01-27T22:42:56.759Z,3.23
2019-01-27T22:45:25.386Z,3.27
2019-01-27T22:47:54.041Z,3.15
2019-01-27T22:50:22.620Z,3.20
2019-01-27T22:52:51.034Z,3.19
2019-01-27T22:55:19.927Z,3.17
2019-01-27T22:57:48.420Z,3.12
2019-01-27T23:00:34.408Z,3.12
2019-01-27T23:03:03.999Z,2.98
2019-01-27T23:05:32.715Z,2.90
2019-01-27T23:08:01.168Z,3.06
2019-01-27T23:10:29.841Z,3.04
2019-01-27T23:12:58.290Z,3.03
2019-01-27T23:15:27.017Z,2.98
2019-01-27T23:17:55.561Z,2.96
2019-01-27T23:20:28.633Z,2.87
2019-01-27T23:22:57.495Z,2.83
2019-01-27T23:25:26.368Z,2.79
2019-01-27T23:27:54.733Z,2.88
2019-01-27T23:30:23.589Z,2.83
2019-01-27T23:32:52.247Z,2.84
2019-01-27T23:35:20.998Z,2.78
2019-01-27T23:37:49.674Z,2.68
2019-01-27T23:40:18.502Z,2.82
2019-01-27T23:42:47.124Z,2.85
2019-01-27T23:45:15.711Z,2.84
2019-01-27T23:47:44.304Z,2.75
2019-01-27T23:50:13.092Z,2.83
2019-01-27T23:52:41.636Z,2.74
2019-01-27T23:55:10.477Z,2.81
2019-01-27T23:57:38.893Z,2.88
